South Worthington, Massachusetts
Current Conditions -  °F | °C
As of 11:53 AM on Friday 26 Dec 2014 (Local Time) from KBAF Reporting Station
Overcast Overcast  
Wind Chill: 41°   Ceiling: 3900
Heat Index: 47°   Visibility: 10mi
Dew Point: 28°   Wind: 14mph
Humidity: 48%   Direction: 290°WNW
Pressure: 30.18"   Gusts: NA
Location:  42.3047°N, 72.879°W
Report Text: KBAF 261653Z 29012KT 10SM OVC039 08/M02 A3018 RMK AO2 SLP222 T00831022
Loading
Personal Weather Stations






























Interactive Weather Map New forecast layout! Learn more

10-Day Weather Forecast

Advertisements
Track Severe Weather on mobile